sensor_id;sensor_type;location;lat;lon;timestamp;P1;durP1;ratioP1;P2;durP2;ratioP2
48679;SDS011;34475;51.658;5.634;2023-03-03T00:00:03;3.7;;;3.5;;
48679;SDS011;34475;51.658;5.634;2023-03-03T00:01:00;3.7;;;3.5;;
48679;SDS011;34475;51.658;5.634;2023-03-03T00:02:00;3.7;;;3.5;;
48679;SDS011;34475;51.658;5.634;2023-03-03T00:03:04;3.7;;;3.5;;
48679;SDS011;34475;51.658;5.634;2023-03-03T00:04:00;3.7;;;3.5;;
48679;SDS011;34475;51.658;5.634;2023-03-03T00:05:00;3.7;;;3.5;;
48679;SDS011;34475;51.658;5.634;2023-03-03T00:06:02;3.7;;;3.5;;
48679;SDS011;34475;51.658;5.634;2023-03-03T00:07:00;3.7;;;3.5;;
48679;SDS011;34475;51.658;5.634;2023-03-03T00:08:01;3.7;;;3.5;;
48679;SDS011;34475;51.658;5.634;2023-03-03T00:09:00;3.7;;;3.5;;
48679;SDS011;34475;51.658;5.634;2023-03-03T00:10:00;3.7;;;3.5;;
48679;SDS011;34475;51.658;5.634;2023-03-03T00:11:02;3.7;;;3.5;;
48679;SDS011;34475;51.658;5.634;2023-03-03T00:12:02;3.7;;;3.5;;
48679;SDS011;34475;51.658;5.634;2023-03-03T00:13:01;3.7;;;3.5;;
48679;SDS011;34475;51.658;5.634;2023-03-03T00:14:00;3.7;;;3.5;;
48679;SDS011;34475;51.658;5.634;2023-03-03T00:15:00;3.7;;;3.5;;
48679;SDS011;34475;51.658;5.634;2023-03-03T00:16:13;3.7;;;3.5;;
48679;SDS011;34475;51.658;5.634;2023-03-03T00:17:09;3.7;;;3.5;;
48679;SDS011;34475;51.658;5.634;2023-03-03T00:18:02;3.7;;;3.5;;
48679;SDS011;34475;51.658;5.634;2023-03-03T00:19:01;2.9;;;2.8;;
48679;SDS011;34475;51.658;5.634;2023-03-03T00:20:01;2.9;;;2.8;;
48679;SDS011;34475;51.658;5.634;2023-03-03T00:21:02;2.9;;;2.8;;
48679;SDS011;34475;51.658;5.634;2023-03-03T00:22:00;2.9;;;2.8;;
48679;SDS011;34475;51.658;5.634;2023-03-03T00:23:12;2.9;;;2.8;;
48679;SDS011;34475;51.658;5.634;2023-03-03T00:26:01;2.9;;;2.8;;
48679;SDS011;34475;51.658;5.634;2023-03-03T00:27:07;2.9;;;2.8;;
48679;SDS011;34475;51.658;5.634;2023-03-03T00:28:19;2.9;;;2.8;;
48679;SDS011;34475;51.658;5.634;2023-03-03T00:29:01;2.9;;;2.8;;
48679;SDS011;34475;51.658;5.634;2023-03-03T00:30:01;2.9;;;2.8;;
48679;SDS011;34475;51.658;5.634;2023-03-03T00:31:11;2.9;;;2.8;;
48679;SDS011;34475;51.658;5.634;2023-03-03T00:32:18;2.9;;;2.8;;
48679;SDS011;34475;51.658;5.634;2023-03-03T00:33:00;2.9;;;2.8;;
48679;SDS011;34475;51.658;5.634;2023-03-03T00:37:00;2.9;;;2.8;;
48679;SDS011;34475;51.658;5.634;2023-03-03T00:38:09;2.9;;;2.8;;
48679;SDS011;34475;51.658;5.634;2023-03-03T00:41:00;2.9;;;2.8;;
48679;SDS011;34475;51.658;5.634;2023-03-03T00:42:18;2.9;;;2.8;;
48679;SDS011;34475;51.658;5.634;2023-03-03T00:43:01;2.9;;;2.8;;
48679;SDS011;34475;51.658;5.634;2023-03-03T00:45:00;2.9;;;2.8;;
48679;SDS011;34475;51.658;5.634;2023-03-03T00:46:01;2.9;;;2.8;;
48679;SDS011;34475;51.658;5.634;2023-03-03T00:47:13;2.9;;;2.8;;
48679;SDS011;34475;51.658;5.634;2023-03-03T00:48:26;2.9;;;2.8;;
48679;SDS011;34475;51.658;5.634;2023-03-03T00:49:10;2.9;;;2.8;;
48679;SDS011;34475;51.658;5.634;2023-03-03T00:51:06;2.9;;;2.8;;
48679;SDS011;34475;51.658;5.634;2023-03-03T00:52:00;2.9;;;2.8;;
48679;SDS011;34475;51.658;5.634;2023-03-03T00:53:11;2.9;;;2.8;;
48679;SDS011;34475;51.658;5.634;2023-03-03T00:54:00;2.9;;;2.8;;
48679;SDS011;34475;51.658;5.634;2023-03-03T00:55:01;2.9;;;2.8;;
48679;SDS011;34475;51.658;5.634;2023-03-03T00:56:00;2.9;;;2.8;;
48679;SDS011;34475;51.658;5.634;2023-03-03T00:57:00;2.9;;;2.8;;
48679;SDS011;34475;51.658;5.634;2023-03-03T00:58:00;2.9;;;2.8;;
48679;SDS011;34475;51.658;5.634;2023-03-03T00:59:00;3.0;;;2.9;;
48679;SDS011;34475;51.658;5.634;2023-03-03T01:00:00;3.0;;;2.9;;
48679;SDS011;34475;51.658;5.634;2023-03-03T01:01:00;3.0;;;2.9;;
48679;SDS011;34475;51.658;5.634;2023-03-03T01:02:00;3.0;;;2.9;;
48679;SDS011;34475;51.658;5.634;2023-03-03T01:03:03;3.0;;;2.9;;
48679;SDS011;34475;51.658;5.634;2023-03-03T01:04:00;3.0;;;2.9;;
48679;SDS011;34475;51.658;5.634;2023-03-03T01:05:00;3.0;;;2.9;;
48679;SDS011;34475;51.658;5.634;2023-03-03T01:06:00;3.0;;;2.9;;
48679;SDS011;34475;51.658;5.634;2023-03-03T01:07:00;3.0;;;2.9;;
48679;SDS011;34475;51.658;5.634;2023-03-03T01:08:02;3.0;;;2.9;;
48679;SDS011;34475;51.658;5.634;2023-03-03T01:09:00;3.0;;;2.9;;
48679;SDS011;34475;51.658;5.634;2023-03-03T01:10:00;3.0;;;2.9;;
48679;SDS011;34475;51.658;5.634;2023-03-03T01:11:07;3.0;;;2.9;;
48679;SDS011;34475;51.658;5.634;2023-03-03T01:12:00;3.0;;;2.9;;
48679;SDS011;34475;51.658;5.634;2023-03-03T01:13:00;3.0;;;2.9;;
48679;SDS011;34475;51.658;5.634;2023-03-03T01:14:00;3.0;;;2.9;;
48679;SDS011;34475;51.658;5.634;2023-03-03T01:15:00;3.0;;;2.9;;
48679;SDS011;34475;51.658;5.634;2023-03-03T01:16:01;3.0;;;2.9;;
48679;SDS011;34475;51.658;5.634;2023-03-03T01:17:00;3.0;;;2.9;;
48679;SDS011;34475;51.658;5.634;2023-03-03T01:18:00;3.0;;;2.9;;
48679;SDS011;34475;51.658;5.634;2023-03-03T01:19:00;3.2;;;3.1;;
48679;SDS011;34475;51.658;5.634;2023-03-03T01:20:01;3.2;;;3.1;;
48679;SDS011;34475;51.658;5.634;2023-03-03T01:21:01;3.2;;;3.1;;
48679;SDS011;34475;51.658;5.634;2023-03-03T01:22:00;3.2;;;3.1;;
48679;SDS011;34475;51.658;5.634;2023-03-03T01:23:00;3.2;;;3.1;;
48679;SDS011;34475;51.658;5.634;2023-03-03T01:24:00;3.2;;;3.1;;
48679;SDS011;34475;51.658;5.634;2023-03-03T01:25:02;3.2;;;3.1;;
48679;SDS011;34475;51.658;5.634;2023-03-03T01:26:00;3.2;;;3.1;;
48679;SDS011;34475;51.658;5.634;2023-03-03T01:27:00;3.2;;;3.1;;
48679;SDS011;34475;51.658;5.634;2023-03-03T01:28:01;3.2;;;3.1;;
48679;SDS011;34475;51.658;5.634;2023-03-03T01:29:00;3.2;;;3.1;;
48679;SDS011;34475;51.658;5.634;2023-03-03T01:30:00;3.2;;;3.1;;
48679;SDS011;34475;51.658;5.634;2023-03-03T01:31:02;3.2;;;3.1;;
48679;SDS011;34475;51.658;5.634;2023-03-03T01:32:00;3.2;;;3.1;;
48679;SDS011;34475;51.658;5.634;2023-03-03T01:33:00;3.2;;;3.1;;
48679;SDS011;34475;51.658;5.634;2023-03-03T01:34:00;3.2;;;3.1;;
48679;SDS011;34475;51.658;5.634;2023-03-03T01:35:00;3.2;;;3.1;;
48679;SDS011;34475;51.658;5.634;2023-03-03T01:36:01;3.2;;;3.1;;
48679;SDS011;34475;51.658;5.634;2023-03-03T01:37:00;3.2;;;3.1;;
48679;SDS011;34475;51.658;5.634;2023-03-03T01:38:00;3.2;;;3.1;;
48679;SDS011;34475;51.658;5.634;2023-03-03T01:39:00;3.3;;;3.2;;
48679;SDS011;34475;51.658;5.634;2023-03-03T01:40:00;3.3;;;3.2;;
48679;SDS011;34475;51.658;5.634;2023-03-03T01:41:01;3.3;;;3.2;;
48679;SDS011;34475;51.658;5.634;2023-03-03T01:42:01;3.3;;;3.2;;
48679;SDS011;34475;51.658;5.634;2023-03-03T01:43:00;3.3;;;3.2;;
48679;SDS011;34475;51.658;5.634;2023-03-03T01:44:00;3.3;;;3.2;;
48679;SDS011;34475;51.658;5.634;2023-03-03T01:45:13;3.3;;;3.2;;
48679;SDS011;34475;51.658;5.634;2023-03-03T01:47:08;3.3;;;3.2;;
48679;SDS011;34475;51.658;5.634;2023-03-03T01:48:05;3.3;;;3.2;;
48679;SDS011;34475;51.658;5.634;2023-03-03T01:49:04;3.3;;;3.2;;
48679;SDS011;34475;51.658;5.634;2023-03-03T01:50:06;3.3;;;3.2;;
48679;SDS011;34475;51.658;5.634;2023-03-03T01:51:03;3.3;;;3.2;;
48679;SDS011;34475;51.658;5.634;2023-03-03T01:52:02;3.3;;;3.2;;
48679;SDS011;34475;51.658;5.634;2023-03-03T01:53:04;3.3;;;3.2;;
48679;SDS011;34475;51.658;5.634;2023-03-03T01:54:03;3.3;;;3.2;;
48679;SDS011;34475;51.658;5.634;2023-03-03T01:55:05;3.3;;;3.2;;
48679;SDS011;34475;51.658;5.634;2023-03-03T01:56:02;3.3;;;3.2;;
48679;SDS011;34475;51.658;5.634;2023-03-03T01:57:04;3.3;;;3.2;;
48679;SDS011;34475;51.658;5.634;2023-03-03T01:58:05;3.3;;;3.2;;
48679;SDS011;34475;51.658;5.634;2023-03-03T01:59:04;3.7;;;3.6;;
48679;SDS011;34475;51.658;5.634;2023-03-03T02:00:02;3.7;;;3.6;;
48679;SDS011;34475;51.658;5.634;2023-03-03T02:01:04;3.7;;;3.6;;
48679;SDS011;34475;51.658;5.634;2023-03-03T02:02:00;3.7;;;3.6;;
48679;SDS011;34475;51.658;5.634;2023-03-03T02:03:00;3.7;;;3.6;;
48679;SDS011;34475;51.658;5.634;2023-03-03T02:04:00;3.7;;;3.6;;
48679;SDS011;34475;51.658;5.634;2023-03-03T02:05:00;3.7;;;3.6;;
48679;SDS011;34475;51.658;5.634;2023-03-03T02:06:04;3.7;;;3.6;;
48679;SDS011;34475;51.658;5.634;2023-03-03T02:07:06;3.7;;;3.6;;
48679;SDS011;34475;51.658;5.634;2023-03-03T02:08:00;3.7;;;3.6;;
48679;SDS011;34475;51.658;5.634;2023-03-03T02:09:11;3.7;;;3.6;;
48679;SDS011;34475;51.658;5.634;2023-03-03T02:10:06;3.7;;;3.6;;
48679;SDS011;34475;51.658;5.634;2023-03-03T02:11:02;3.7;;;3.6;;
48679;SDS011;34475;51.658;5.634;2023-03-03T02:12:05;3.7;;;3.6;;
48679;SDS011;34475;51.658;5.634;2023-03-03T02:13:00;3.7;;;3.6;;
48679;SDS011;34475;51.658;5.634;2023-03-03T02:14:00;3.7;;;3.6;;
48679;SDS011;34475;51.658;5.634;2023-03-03T02:15:00;3.7;;;3.6;;
48679;SDS011;34475;51.658;5.634;2023-03-03T02:16:00;3.7;;;3.6;;
48679;SDS011;34475;51.658;5.634;2023-03-03T02:17:00;3.7;;;3.6;;
48679;SDS011;34475;51.658;5.634;2023-03-03T02:18:04;3.7;;;3.6;;
48679;SDS011;34475;51.658;5.634;2023-03-03T02:19:00;3.3;;;3.2;;
48679;SDS011;34475;51.658;5.634;2023-03-03T02:20:14;3.3;;;3.2;;
48679;SDS011;34475;51.658;5.634;2023-03-03T02:22:01;3.3;;;3.2;;
48679;SDS011;34475;51.658;5.634;2023-03-03T02:23:05;3.3;;;3.2;;
48679;SDS011;34475;51.658;5.634;2023-03-03T02:25:02;3.3;;;3.2;;
48679;SDS011;34475;51.658;5.634;2023-03-03T02:26:06;3.3;;;3.2;;
48679;SDS011;34475;51.658;5.634;2023-03-03T02:27:00;3.3;;;3.2;;
48679;SDS011;34475;51.658;5.634;2023-03-03T02:28:01;3.3;;;3.2;;
48679;SDS011;34475;51.658;5.634;2023-03-03T02:29:00;3.3;;;3.2;;
48679;SDS011;34475;51.658;5.634;2023-03-03T02:30:13;3.3;;;3.2;;
48679;SDS011;34475;51.658;5.634;2023-03-03T02:31:01;3.3;;;3.2;;
48679;SDS011;34475;51.658;5.634;2023-03-03T02:32:00;3.3;;;3.2;;
48679;SDS011;34475;51.658;5.634;2023-03-03T02:33:00;3.3;;;3.2;;
48679;SDS011;34475;51.658;5.634;2023-03-03T02:34:00;3.3;;;3.2;;
48679;SDS011;34475;51.658;5.634;2023-03-03T02:35:00;3.3;;;3.2;;
48679;SDS011;34475;51.658;5.634;2023-03-03T02:36:00;3.3;;;3.2;;
48679;SDS011;34475;51.658;5.634;2023-03-03T02:37:02;3.3;;;3.2;;
48679;SDS011;34475;51.658;5.634;2023-03-03T02:40:01;3.3;;;3.2;;
48679;SDS011;34475;51.658;5.634;2023-03-03T02:41:21;3.3;;;3.2;;
48679;SDS011;34475;51.658;5.634;2023-03-03T02:42:03;3.3;;;3.2;;
48679;SDS011;34475;51.658;5.634;2023-03-03T02:43:01;3.3;;;3.2;;
48679;SDS011;34475;51.658;5.634;2023-03-03T02:44:04;3.3;;;3.2;;
48679;SDS011;34475;51.658;5.634;2023-03-03T02:45:00;3.3;;;3.2;;
48679;SDS011;34475;51.658;5.634;2023-03-03T02:46:00;3.3;;;3.2;;
48679;SDS011;34475;51.658;5.634;2023-03-03T02:47:00;3.3;;;3.2;;
48679;SDS011;34475;51.658;5.634;2023-03-03T02:48:00;3.3;;;3.2;;
48679;SDS011;34475;51.658;5.634;2023-03-03T02:49:01;3.3;;;3.2;;
48679;SDS011;34475;51.658;5.634;2023-03-03T02:50:00;3.3;;;3.2;;
48679;SDS011;34475;51.658;5.634;2023-03-03T02:51:00;3.3;;;3.2;;
48679;SDS011;34475;51.658;5.634;2023-03-03T02:52:02;3.3;;;3.2;;
48679;SDS011;34475;51.658;5.634;2023-03-03T02:53:00;3.3;;;3.2;;
48679;SDS011;34475;51.658;5.634;2023-03-03T02:54:00;3.3;;;3.2;;
48679;SDS011;34475;51.658;5.634;2023-03-03T02:55:00;3.3;;;3.2;;
48679;SDS011;34475;51.658;5.634;2023-03-03T02:56:00;3.3;;;3.2;;
48679;SDS011;34475;51.658;5.634;2023-03-03T02:57:01;3.3;;;3.2;;
48679;SDS011;34475;51.658;5.634;2023-03-03T02:58:00;3.3;;;3.2;;
48679;SDS011;34475;51.658;5.634;2023-03-03T02:59:00;3.5;;;3.4;;
48679;SDS011;34475;51.658;5.634;2023-03-03T03:00:00;3.5;;;3.4;;
48679;SDS011;34475;51.658;5.634;2023-03-03T03:01:00;3.5;;;3.4;;
48679;SDS011;34475;51.658;5.634;2023-03-03T03:02:00;3.5;;;3.4;;
48679;SDS011;34475;51.658;5.634;2023-03-03T03:03:00;3.5;;;3.4;;
48679;SDS011;34475;51.658;5.634;2023-03-03T03:04:00;3.5;;;3.4;;
48679;SDS011;34475;51.658;5.634;2023-03-03T03:05:00;3.5;;;3.4;;
48679;SDS011;34475;51.658;5.634;2023-03-03T03:06:00;3.5;;;3.4;;
48679;SDS011;34475;51.658;5.634;2023-03-03T03:07:00;3.5;;;3.4;;
48679;SDS011;34475;51.658;5.634;2023-03-03T03:08:00;3.5;;;3.4;;
48679;SDS011;34475;51.658;5.634;2023-03-03T03:09:00;3.5;;;3.4;;
48679;SDS011;34475;51.658;5.634;2023-03-03T03:10:00;3.5;;;3.4;;
48679;SDS011;34475;51.658;5.634;2023-03-03T03:11:00;3.5;;;3.4;;
48679;SDS011;34475;51.658;5.634;2023-03-03T03:12:01;3.5;;;3.4;;
48679;SDS011;34475;51.658;5.634;2023-03-03T03:13:00;3.5;;;3.4;;
48679;SDS011;34475;51.658;5.634;2023-03-03T03:14:01;3.5;;;3.4;;
48679;SDS011;34475;51.658;5.634;2023-03-03T03:15:00;3.5;;;3.4;;
48679;SDS011;34475;51.658;5.634;2023-03-03T03:16:00;3.5;;;3.4;;
48679;SDS011;34475;51.658;5.634;2023-03-03T03:17:01;3.5;;;3.4;;
48679;SDS011;34475;51.658;5.634;2023-03-03T03:18:00;3.0;;;2.9;;
48679;SDS011;34475;51.658;5.634;2023-03-03T03:19:01;3.0;;;2.9;;
48679;SDS011;34475;51.658;5.634;2023-03-03T03:20:00;3.0;;;2.9;;
48679;SDS011;34475;51.658;5.634;2023-03-03T03:21:09;3.0;;;2.9;;
48679;SDS011;34475;51.658;5.634;2023-03-03T03:22:00;3.0;;;2.9;;
48679;SDS011;34475;51.658;5.634;2023-03-03T03:23:00;3.0;;;2.9;;
48679;SDS011;34475;51.658;5.634;2023-03-03T03:24:00;3.0;;;2.9;;
48679;SDS011;34475;51.658;5.634;2023-03-03T03:25:00;3.0;;;2.9;;
48679;SDS011;34475;51.658;5.634;2023-03-03T03:26:00;3.0;;;2.9;;
48679;SDS011;34475;51.658;5.634;2023-03-03T03:27:00;3.0;;;2.9;;
48679;SDS011;34475;51.658;5.634;2023-03-03T03:28:01;3.0;;;2.9;;
48679;SDS011;34475;51.658;5.634;2023-03-03T03:29:00;3.0;;;2.9;;
48679;SDS011;34475;51.658;5.634;2023-03-03T03:30:00;3.0;;;2.9;;
48679;SDS011;34475;51.658;5.634;2023-03-03T03:31:01;3.0;;;2.9;;
48679;SDS011;34475;51.658;5.634;2023-03-03T03:32:00;3.0;;;2.9;;
48679;SDS011;34475;51.658;5.634;2023-03-03T03:33:00;3.0;;;2.9;;
48679;SDS011;34475;51.658;5.634;2023-03-03T03:34:00;3.0;;;2.9;;
48679;SDS011;34475;51.658;5.634;2023-03-03T03:35:00;3.0;;;2.9;;
48679;SDS011;34475;51.658;5.634;2023-03-03T03:36:01;3.0;;;2.9;;
48679;SDS011;34475;51.658;5.634;2023-03-03T03:37:00;3.0;;;2.9;;
48679;SDS011;34475;51.658;5.634;2023-03-03T03:38:01;3.2;;;3.1;;
48679;SDS011;34475;51.658;5.634;2023-03-03T03:39:01;3.2;;;3.1;;
48679;SDS011;34475;51.658;5.634;2023-03-03T03:40:00;3.2;;;3.1;;
48679;SDS011;34475;51.658;5.634;2023-03-03T03:41:00;3.2;;;3.1;;
48679;SDS011;34475;51.658;5.634;2023-03-03T03:42:00;3.2;;;3.1;;
48679;SDS011;34475;51.658;5.634;2023-03-03T03:43:00;3.2;;;3.1;;
48679;SDS011;34475;51.658;5.634;2023-03-03T03:44:00;3.2;;;3.1;;
48679;SDS011;34475;51.658;5.634;2023-03-03T03:45:00;3.2;;;3.1;;
48679;SDS011;34475;51.658;5.634;2023-03-03T03:46:00;3.2;;;3.1;;
48679;SDS011;34475;51.658;5.634;2023-03-03T03:47:00;3.2;;;3.1;;
48679;SDS011;34475;51.658;5.634;2023-03-03T03:48:00;3.2;;;3.1;;
48679;SDS011;34475;51.658;5.634;2023-03-03T03:49:00;3.2;;;3.1;;
48679;SDS011;34475;51.658;5.634;2023-03-03T03:50:00;3.2;;;3.1;;
48679;SDS011;34475;51.658;5.634;2023-03-03T03:51:00;3.2;;;3.1;;
48679;SDS011;34475;51.658;5.634;2023-03-03T03:52:00;3.2;;;3.1;;
48679;SDS011;34475;51.658;5.634;2023-03-03T03:53:00;3.2;;;3.1;;
48679;SDS011;34475;51.658;5.634;2023-03-03T03:54:00;3.2;;;3.1;;
48679;SDS011;34475;51.658;5.634;2023-03-03T03:55:00;3.2;;;3.1;;
48679;SDS011;34475;51.658;5.634;2023-03-03T03:56:00;3.2;;;3.1;;
48679;SDS011;34475;51.658;5.634;2023-03-03T03:57:00;3.2;;;3.1;;
48679;SDS011;34475;51.658;5.634;2023-03-03T03:58:00;3.2;;;3.1;;
48679;SDS011;34475;51.658;5.634;2023-03-03T03:59:00;3.2;;;3.1;;
48679;SDS011;34475;51.658;5.634;2023-03-03T04:00:00;3.2;;;3.1;;
48679;SDS011;34475;51.658;5.634;2023-03-03T04:01:05;3.2;;;3.1;;
48679;SDS011;34475;51.658;5.634;2023-03-03T04:02:00;3.2;;;3.1;;
48679;SDS011;34475;51.658;5.634;2023-03-03T04:03:00;3.2;;;3.1;;
48679;SDS011;34475;51.658;5.634;2023-03-03T04:04:00;3.2;;;3.1;;
48679;SDS011;34475;51.658;5.634;2023-03-03T04:05:00;3.2;;;3.1;;
48679;SDS011;34475;51.658;5.634;2023-03-03T04:06:00;3.2;;;3.1;;
48679;SDS011;34475;51.658;5.634;2023-03-03T04:07:00;3.2;;;3.1;;
48679;SDS011;34475;51.658;5.634;2023-03-03T04:08:00;3.2;;;3.1;;
48679;SDS011;34475;51.658;5.634;2023-03-03T04:09:00;3.2;;;3.1;;
48679;SDS011;34475;51.658;5.634;2023-03-03T04:10:00;3.2;;;3.1;;
48679;SDS011;34475;51.658;5.634;2023-03-03T04:11:00;3.2;;;3.1;;
48679;SDS011;34475;51.658;5.634;2023-03-03T04:12:00;3.2;;;3.1;;
48679;SDS011;34475;51.658;5.634;2023-03-03T04:13:00;3.2;;;3.1;;
48679;SDS011;34475;51.658;5.634;2023-03-03T04:14:00;3.2;;;3.1;;
48679;SDS011;34475;51.658;5.634;2023-03-03T04:15:00;3.2;;;3.1;;
48679;SDS011;34475;51.658;5.634;2023-03-03T04:16:01;3.2;;;3.1;;
48679;SDS011;34475;51.658;5.634;2023-03-03T04:17:00;3.2;;;3.1;;
48679;SDS011;34475;51.658;5.634;2023-03-03T04:18:00;3.1;;;3.0;;
48679;SDS011;34475;51.658;5.634;2023-03-03T04:19:00;3.1;;;3.0;;
48679;SDS011;34475;51.658;5.634;2023-03-03T04:20:02;3.1;;;3.0;;
48679;SDS011;34475;51.658;5.634;2023-03-03T04:21:00;3.1;;;3.0;;
48679;SDS011;34475;51.658;5.634;2023-03-03T04:22:00;3.1;;;3.0;;
48679;SDS011;34475;51.658;5.634;2023-03-03T04:23:00;3.1;;;3.0;;
48679;SDS011;34475;51.658;5.634;2023-03-03T04:24:00;3.1;;;3.0;;
48679;SDS011;34475;51.658;5.634;2023-03-03T04:25:04;3.1;;;3.0;;
48679;SDS011;34475;51.658;5.634;2023-03-03T04:26:00;3.1;;;3.0;;
48679;SDS011;34475;51.658;5.634;2023-03-03T04:27:00;3.1;;;3.0;;
48679;SDS011;34475;51.658;5.634;2023-03-03T04:28:00;3.1;;;3.0;;
48679;SDS011;34475;51.658;5.634;2023-03-03T04:29:00;3.1;;;3.0;;
48679;SDS011;34475;51.658;5.634;2023-03-03T04:30:01;3.1;;;3.0;;
48679;SDS011;34475;51.658;5.634;2023-03-03T04:31:00;3.1;;;3.0;;
48679;SDS011;34475;51.658;5.634;2023-03-03T04:32:00;3.1;;;3.0;;
48679;SDS011;34475;51.658;5.634;2023-03-03T04:33:00;3.1;;;3.0;;
48679;SDS011;34475;51.658;5.634;2023-03-03T04:34:00;3.1;;;3.0;;
48679;SDS011;34475;51.658;5.634;2023-03-03T04:35:09;3.1;;;3.0;;
48679;SDS011;34475;51.658;5.634;2023-03-03T04:36:00;3.1;;;3.0;;
48679;SDS011;34475;51.658;5.634;2023-03-03T04:37:00;3.1;;;3.0;;
48679;SDS011;34475;51.658;5.634;2023-03-03T04:38:00;3.3;;;3.2;;
48679;SDS011;34475;51.658;5.634;2023-03-03T04:39:00;3.3;;;3.2;;
48679;SDS011;34475;51.658;5.634;2023-03-03T04:40:00;3.3;;;3.2;;
48679;SDS011;34475;51.658;5.634;2023-03-03T04:41:00;3.3;;;3.2;;
48679;SDS011;34475;51.658;5.634;2023-03-03T04:42:00;3.3;;;3.2;;
48679;SDS011;34475;51.658;5.634;2023-03-03T04:43:00;3.3;;;3.2;;
48679;SDS011;34475;51.658;5.634;2023-03-03T04:44:00;3.3;;;3.2;;
48679;SDS011;34475;51.658;5.634;2023-03-03T04:45:00;3.3;;;3.2;;
48679;SDS011;34475;51.658;5.634;2023-03-03T04:46:00;3.3;;;3.2;;
48679;SDS011;34475;51.658;5.634;2023-03-03T04:47:00;3.3;;;3.2;;
48679;SDS011;34475;51.658;5.634;2023-03-03T04:48:00;3.3;;;3.2;;
48679;SDS011;34475;51.658;5.634;2023-03-03T04:49:00;3.3;;;3.2;;
48679;SDS011;34475;51.658;5.634;2023-03-03T04:50:00;3.3;;;3.2;;
48679;SDS011;34475;51.658;5.634;2023-03-03T04:51:00;3.3;;;3.2;;
48679;SDS011;34475;51.658;5.634;2023-03-03T04:52:00;3.3;;;3.2;;
48679;SDS011;34475;51.658;5.634;2023-03-03T04:53:00;3.3;;;3.2;;
48679;SDS011;34475;51.658;5.634;2023-03-03T04:54:00;3.3;;;3.2;;
48679;SDS011;34475;51.658;5.634;2023-03-03T04:55:00;3.3;;;3.2;;
48679;SDS011;34475;51.658;5.634;2023-03-03T04:56:00;3.3;;;3.2;;
48679;SDS011;34475;51.658;5.634;2023-03-03T04:57:00;3.3;;;3.2;;
48679;SDS011;34475;51.658;5.634;2023-03-03T04:58:00;3.0;;;2.9;;
48679;SDS011;34475;51.658;5.634;2023-03-03T04:59:00;3.0;;;2.9;;
48679;SDS011;34475;51.658;5.634;2023-03-03T05:00:00;3.0;;;2.9;;
48679;SDS011;34475;51.658;5.634;2023-03-03T05:01:00;3.0;;;2.9;;
48679;SDS011;34475;51.658;5.634;2023-03-03T05:02:00;3.0;;;2.9;;
48679;SDS011;34475;51.658;5.634;2023-03-03T05:03:00;3.0;;;2.9;;
48679;SDS011;34475;51.658;5.634;2023-03-03T05:04:00;3.0;;;2.9;;
48679;SDS011;34475;51.658;5.634;2023-03-03T05:05:00;3.0;;;2.9;;
48679;SDS011;34475;51.658;5.634;2023-03-03T05:06:00;3.0;;;2.9;;
48679;SDS011;34475;51.658;5.634;2023-03-03T05:07:00;3.0;;;2.9;;
48679;SDS011;34475;51.658;5.634;2023-03-03T05:08:00;3.0;;;2.9;;
48679;SDS011;34475;51.658;5.634;2023-03-03T05:09:00;3.0;;;2.9;;
48679;SDS011;34475;51.658;5.634;2023-03-03T05:10:00;3.0;;;2.9;;
48679;SDS011;34475;51.658;5.634;2023-03-03T05:11:01;3.0;;;2.9;;
48679;SDS011;34475;51.658;5.634;2023-03-03T05:12:00;3.0;;;2.9;;
48679;SDS011;34475;51.658;5.634;2023-03-03T05:13:00;3.0;;;2.9;;
48679;SDS011;34475;51.658;5.634;2023-03-03T05:14:01;3.0;;;2.9;;
48679;SDS011;34475;51.658;5.634;2023-03-03T05:15:00;3.0;;;2.9;;
48679;SDS011;34475;51.658;5.634;2023-03-03T05:16:00;3.0;;;2.9;;
48679;SDS011;34475;51.658;5.634;2023-03-03T05:17:02;3.0;;;2.9;;
48679;SDS011;34475;51.658;5.634;2023-03-03T05:18:00;3.8;;;3.7;;
48679;SDS011;34475;51.658;5.634;2023-03-03T05:19:00;3.8;;;3.7;;
48679;SDS011;34475;51.658;5.634;2023-03-03T05:20:00;3.8;;;3.7;;
48679;SDS011;34475;51.658;5.634;2023-03-03T05:21:00;3.8;;;3.7;;
48679;SDS011;34475;51.658;5.634;2023-03-03T05:22:00;3.8;;;3.7;;
48679;SDS011;34475;51.658;5.634;2023-03-03T05:23:00;3.8;;;3.7;;
48679;SDS011;34475;51.658;5.634;2023-03-03T05:24:00;3.8;;;3.7;;
48679;SDS011;34475;51.658;5.634;2023-03-03T05:25:00;3.8;;;3.7;;
48679;SDS011;34475;51.658;5.634;2023-03-03T05:26:00;3.8;;;3.7;;
48679;SDS011;34475;51.658;5.634;2023-03-03T05:27:01;3.8;;;3.7;;
48679;SDS011;34475;51.658;5.634;2023-03-03T05:28:00;3.8;;;3.7;;
48679;SDS011;34475;51.658;5.634;2023-03-03T05:29:00;3.8;;;3.7;;
48679;SDS011;34475;51.658;5.634;2023-03-03T05:30:00;3.8;;;3.7;;
48679;SDS011;34475;51.658;5.634;2023-03-03T05:31:00;3.8;;;3.7;;
48679;SDS011;34475;51.658;5.634;2023-03-03T05:32:00;3.8;;;3.7;;
48679;SDS011;34475;51.658;5.634;2023-03-03T05:33:00;3.8;;;3.7;;
48679;SDS011;34475;51.658;5.634;2023-03-03T05:34:00;3.8;;;3.7;;
48679;SDS011;34475;51.658;5.634;2023-03-03T05:35:01;3.8;;;3.7;;
48679;SDS011;34475;51.658;5.634;2023-03-03T05:36:00;3.8;;;3.7;;
48679;SDS011;34475;51.658;5.634;2023-03-03T05:37:00;3.8;;;3.7;;
48679;SDS011;34475;51.658;5.634;2023-03-03T05:38:00;3.4;;;3.3;;
48679;SDS011;34475;51.658;5.634;2023-03-03T05:39:00;3.4;;;3.3;;
48679;SDS011;34475;51.658;5.634;2023-03-03T05:40:00;3.4;;;3.3;;
48679;SDS011;34475;51.658;5.634;2023-03-03T05:41:00;3.4;;;3.3;;
48679;SDS011;34475;51.658;5.634;2023-03-03T05:42:00;3.4;;;3.3;;
48679;SDS011;34475;51.658;5.634;2023-03-03T05:43:00;3.4;;;3.3;;
48679;SDS011;34475;51.658;5.634;2023-03-03T05:44:00;3.4;;;3.3;;
48679;SDS011;34475;51.658;5.634;2023-03-03T05:45:00;3.4;;;3.3;;
48679;SDS011;34475;51.658;5.634;2023-03-03T05:46:00;3.4;;;3.3;;
48679;SDS011;34475;51.658;5.634;2023-03-03T05:47:00;3.4;;;3.3;;
48679;SDS011;34475;51.658;5.634;2023-03-03T05:48:00;3.4;;;3.3;;
48679;SDS011;34475;51.658;5.634;2023-03-03T05:49:01;3.4;;;3.3;;
48679;SDS011;34475;51.658;5.634;2023-03-03T05:50:00;3.4;;;3.3;;
48679;SDS011;34475;51.658;5.634;2023-03-03T05:51:00;3.4;;;3.3;;
48679;SDS011;34475;51.658;5.634;2023-03-03T05:52:00;3.4;;;3.3;;
48679;SDS011;34475;51.658;5.634;2023-03-03T05:53:00;3.4;;;3.3;;
48679;SDS011;34475;51.658;5.634;2023-03-03T05:54:00;3.4;;;3.3;;
48679;SDS011;34475;51.658;5.634;2023-03-03T05:55:00;3.4;;;3.3;;
48679;SDS011;34475;51.658;5.634;2023-03-03T05:56:00;3.4;;;3.3;;
48679;SDS011;34475;51.658;5.634;2023-03-03T05:57:00;3.4;;;3.3;;
48679;SDS011;34475;51.658;5.634;2023-03-03T05:58:00;3.1;;;3.0;;
48679;SDS011;34475;51.658;5.634;2023-03-03T05:59:00;3.1;;;3.0;;
48679;SDS011;34475;51.658;5.634;2023-03-03T06:00:01;3.1;;;3.0;;
48679;SDS011;34475;51.658;5.634;2023-03-03T06:01:00;3.1;;;3.0;;
48679;SDS011;34475;51.658;5.634;2023-03-03T06:02:00;3.1;;;3.0;;
48679;SDS011;34475;51.658;5.634;2023-03-03T06:03:00;3.1;;;3.0;;
48679;SDS011;34475;51.658;5.634;2023-03-03T06:04:00;3.1;;;3.0;;
48679;SDS011;34475;51.658;5.634;2023-03-03T06:05:00;3.1;;;3.0;;
48679;SDS011;34475;51.658;5.634;2023-03-03T06:06:00;3.1;;;3.0;;
48679;SDS011;34475;51.658;5.634;2023-03-03T06:07:00;3.1;;;3.0;;
48679;SDS011;34475;51.658;5.634;2023-03-03T06:08:00;3.1;;;3.0;;
48679;SDS011;34475;51.658;5.634;2023-03-03T06:09:00;3.1;;;3.0;;
48679;SDS011;34475;51.658;5.634;2023-03-03T06:10:00;3.1;;;3.0;;
48679;SDS011;34475;51.658;5.634;2023-03-03T06:11:00;3.1;;;3.0;;
48679;SDS011;34475;51.658;5.634;2023-03-03T06:12:00;3.1;;;3.0;;
48679;SDS011;34475;51.658;5.634;2023-03-03T06:13:00;3.1;;;3.0;;
48679;SDS011;34475;51.658;5.634;2023-03-03T06:14:00;3.1;;;3.0;;
48679;SDS011;34475;51.658;5.634;2023-03-03T06:15:00;3.1;;;3.0;;
48679;SDS011;34475;51.658;5.634;2023-03-03T06:16:00;3.1;;;3.0;;
48679;SDS011;34475;51.658;5.634;2023-03-03T06:17:00;3.1;;;3.0;;
48679;SDS011;34475;51.658;5.634;2023-03-03T06:18:00;2.9;;;2.8;;
48679;SDS011;34475;51.658;5.634;2023-03-03T06:19:00;2.9;;;2.8;;
48679;SDS011;34475;51.658;5.634;2023-03-03T06:20:01;2.9;;;2.8;;
48679;SDS011;34475;51.658;5.634;2023-03-03T06:21:00;2.9;;;2.8;;
48679;SDS011;34475;51.658;5.634;2023-03-03T06:22:01;2.9;;;2.8;;
48679;SDS011;34475;51.658;5.634;2023-03-03T06:23:00;2.9;;;2.8;;
48679;SDS011;34475;51.658;5.634;2023-03-03T06:24:00;2.9;;;2.8;;
48679;SDS011;34475;51.658;5.634;2023-03-03T06:25:00;2.9;;;2.8;;
48679;SDS011;34475;51.658;5.634;2023-03-03T06:26:00;2.9;;;2.8;;